KMTH/MTH METAR and TAF weather

Enter ICAO airport designator
Station Type Date Time Source
KMTH METAR 2018/12/11 17:53 UTC NOAA

KMTH 111753Z AUTO 34011KT 10SM CLR 19/11 A3023 RMK AO2 SLP237 T01890111 10189 20139 58018


Station Type Date Time Source
KMTH Decoded METAR 2018/12/11 17:53 UTC NOAA

MARATHON AIRPORT, FL, United States (KMTH) 24-44N 81-03W 2M
Dec 11, 2018 - 12:53 PM EST / 2018.12.11 1753 UTC
Wind: from the NNW (340 degrees) at 13 MPH (11 KT):0
Visibility: 10 mile(s):0
Sky conditions: clear
Temperature: 66.0 F (18.9 C)
Dew Point: 52.0 F (11.1 C)
Relative Humidity: 60%
Pressure (altimeter): 30.23 in. Hg (1023 hPa)
Pressure tendency: 0.05 inches (1.8 hPa) lower than three hours ago
ob: KMTH 111753Z AUTO 34011KT 10SM CLR 19/11 A3023 RMK AO2 SLP237 T01890111 10189 20139 58018
cycle: 18

Station Type Date Time Source
KMTH TAF 2018/12/11 18:22 UTC NOAA

TAF KMTH 111720Z 1118/1218 34014G22KT P6SM SCT250
FM120200 02015G23KT P6SM SKC
FM120800 03008KT P6SM SKC
FM121200 04010KT P6SM SCT015 SCT250


Example: see airport list